Melbourne International Airport
YMML : now visible

Airfield :











YOU CAN JOIN US ON...

 
LOGIN :

Register | Disclaimer

   EN    FR    IT 

 









Legend :    VFR   Marginal VFR   IFR   Intensive IFR   Very Intensive IFR
Visi :
Ceiling :
>= 8 km
>= 3000ft
5 to 8 km
1000 to 3000 ft
1500m to 5 km
500 to 1000 ft
800 to 1500m
200 to 500 ft
< 800m
< 200 ft
Symbols :   Thunderstorms  Fog  Heavy snow  Heavy precipitations  Wind > 20 kt







- Airport Elevation : 434 ft
- IATA code : MEL


YMML - Melbourne International

CURRENT METAR :
  • 271200Z 36017KT CAVOK 12/05 Q1028 FM1200 MOD/SEV TURB BLW 5000FT

EXPIRED METARs :
  • 271130Z 01015KT CAVOK 11/05 Q1028 FM1130 MOD/SEV TURB BLW 5000FT
  • 271100Z 03009KT CAVOK 11/06 Q1028 FM1300 01015G25KT CAVOK FM1100 MOD/SEV TURB BLW 5000FT
  • 271030Z 03010KT CAVOK 11/06 Q1028
  • 271000Z 01014KT CAVOK 11/06 Q1029 FM1000 MOD/SEV TURB BLW 5000FT
  • 270930Z 01014KT CAVOK 12/06 Q1029 FM0930 MOD/SEV TURB BLW 5000FT

TAF TAF YMML
Valid from the 27 at 12:00 until the 28 at 18:00 UTC


271121Z 2712/2818 01015G25KT CAVOK
FM280100 01017G34KT CAVOK
FM280500 01016G26KT 9999 FEW045
FM280900 01018G32KT 9999 FEW045
FM281200 01020G36KT 9999 FEW045
YMMM FIR / Oceania



MET'MAP, your aeronautical weather chart ! - Copyright ORBIFLY December 2007 - Disclaimer

ORBIFLY MET'MAP TEAM :

Programming & Development : Alexandra Zaïnal
Concept & Development : Baudouin d'Aumeries
Co-Development & Prog : Marc-Olivier Méhu
Technical & hardware support : Manuel Goepfert

Contact : metmap@orbifly.com




SOURCES & CREDITS :

   NOAA       Earth
Advisory